Aerbrava en el facebook Aerbrava en el twitter Aerbrava Google+ Aerbrava instagram Aerbrava en el youtube Aerbrava tumblr Aerbrava flikr Aerbrava pinterest
aerbrava en catal&agà Aerbrava in English
Escuela de Pilotos
Teléfono 972234126 972 23 41 26
 
aerbrava en català Aerbrava in English
Aerbrava - Meteorología

Información meteorológica aeronáutica

 

En este apartado aparece la información meteorológica aeronáutica que es utilizada en las prácticas de los alumnos de la Escuela de Pilotos de nuestro centro durante su formación, por lo que puede no ser actual y se debería utilizar por su propia cuenta y riesgo. AERBRAVA no se hace responsable de su uso.

 

TIEMPO ACTUAL

Satélite Meteorológico

sat24.com

Servei Meteorològic de Catalunya

 

LEGE 270200Z 05004KT 9999 FEW050 10/07 Q1012
LEGE 270130Z VRB02KT 9999 FEW050 10/08 Q1012
LEGE 270100Z VRB02KT 9999 FEW050 11/08 Q1012
LEGE 270030Z VRB02KT CAVOK 12/08 Q1013
LEGE 270000Z VRB02KT CAVOK 11/08 Q1013
LEGE 262330Z VRB01KT CAVOK 13/08 Q1013
LEGE 262300Z VRB02KT CAVOK 13/08 Q1013
LEGE 262230Z 01004KT 320V060 9999 FEW050 14/08 Q1014
TAF LEGE 262300Z 2700/2724 VRB03KT 9999 FEW050 TX26/2713Z TN11/2706Z   BECMG 2711/2713 18010KT   PROB30   TEMPO 2712/2718 FEW050TCU   BECMG 2722/2724 VRB03KT

Aviation Weather

 
Aerbrava en el facebook Aerbrava en el twitter Aerbrava Google+ Aerbrava instagram Aerbrava en el youtube Aerbrava tumblr Aerbrava flikr Aerbrava pinterest

¡CSS Vàlid!